createdAt,value
2022-10-25T00:01:59.439Z,21.39
2022-10-25T00:04:28.496Z,21.55
2022-10-25T00:06:57.672Z,21.54
2022-10-25T00:09:27.175Z,21.55
2022-10-25T00:11:56.113Z,21.26
2022-10-25T00:14:26.022Z,21.30
2022-10-25T00:16:55.063Z,21.25
2022-10-25T00:19:24.368Z,21.40
2022-10-25T00:21:53.458Z,21.37
2022-10-25T00:24:22.456Z,21.32
2022-10-25T00:26:51.618Z,21.27
2022-10-25T00:29:20.749Z,21.07
2022-10-25T00:31:50.027Z,21.34
2022-10-25T00:34:19.054Z,21.36
2022-10-25T00:36:48.399Z,21.37
2022-10-25T00:39:17.971Z,21.39
2022-10-25T00:41:46.904Z,21.47
2022-10-25T00:44:38.007Z,21.66
2022-10-25T00:47:29.752Z,21.54
2022-10-25T00:50:54.215Z,21.61
2022-10-25T00:53:29.550Z,21.42
2022-10-25T00:56:05.326Z,21.37
2022-10-25T00:58:38.352Z,21.05
2022-10-25T01:01:11.759Z,20.94
2022-10-25T01:03:48.365Z,21.13
2022-10-25T01:06:35.394Z,21.29
2022-10-25T01:09:12.277Z,21.22
2022-10-25T01:11:47.675Z,21.18
2022-10-25T01:14:24.818Z,21.31
2022-10-25T01:17:23.039Z,21.38
2022-10-25T01:20:13.644Z,21.25
2022-10-25T01:23:13.643Z,21.27
2022-10-25T01:26:21.044Z,21.37
2022-10-25T01:29:08.102Z,21.36
2022-10-25T01:31:50.719Z,21.42
2022-10-25T01:34:29.951Z,21.39
2022-10-25T01:37:27.430Z,21.43
2022-10-25T01:40:10.627Z,21.46
2022-10-25T01:43:24.081Z,21.51
2022-10-25T01:46:10.603Z,21.50
2022-10-25T01:48:49.222Z,21.47
2022-10-25T01:51:20.126Z,21.46
2022-10-25T01:53:51.869Z,21.52
2022-10-25T01:56:33.717Z,21.61
2022-10-25T01:59:21.026Z,21.68
2022-10-25T02:02:10.531Z,21.82
2022-10-25T02:04:58.594Z,21.79
2022-10-25T02:08:02.173Z,21.89
2022-10-25T02:10:54.238Z,21.98
2022-10-25T02:13:46.431Z,22.07
2022-10-25T02:16:21.879Z,22.05
2022-10-25T02:18:56.888Z,22.08
2022-10-25T02:21:28.542Z,22.09
2022-10-25T02:23:59.999Z,22.12
2022-10-25T02:26:30.106Z,22.18
2022-10-25T02:29:00.240Z,22.28
2022-10-25T02:31:32.311Z,22.36
2022-10-25T02:34:02.270Z,22.42
2022-10-25T02:36:31.788Z,22.50
2022-10-25T02:39:02.206Z,22.59
2022-10-25T02:41:31.716Z,22.72
2022-10-25T02:44:01.446Z,22.82
2022-10-25T02:46:30.827Z,22.92
2022-10-25T02:49:00.850Z,22.99
2022-10-25T02:51:30.187Z,23.10
2022-10-25T02:53:59.472Z,23.18
2022-10-25T02:56:29.074Z,23.30
2022-10-25T02:59:00.195Z,23.46
2022-10-25T03:01:29.845Z,23.48
2022-10-25T03:03:59.023Z,23.57
2022-10-25T03:06:29.004Z,23.72
2022-10-25T03:08:58.302Z,23.85
2022-10-25T03:11:27.860Z,23.99
2022-10-25T03:13:57.145Z,24.11
2022-10-25T03:16:26.242Z,24.23
2022-10-25T03:19:01.204Z,24.44
2022-10-25T03:21:30.699Z,24.51
2022-10-25T03:24:00.676Z,24.60
2022-10-25T03:26:30.300Z,24.66
2022-10-25T03:28:59.526Z,24.82
2022-10-25T03:31:29.245Z,24.88
2022-10-25T03:33:58.445Z,25.04
2022-10-25T03:36:28.225Z,25.12
2022-10-25T03:38:58.269Z,25.22
2022-10-25T03:41:27.693Z,25.30
2022-10-25T03:43:57.981Z,25.42
2022-10-25T03:46:27.215Z,25.49
2022-10-25T03:48:56.873Z,25.56
2022-10-25T03:51:26.459Z,25.69
2022-10-25T03:53:55.780Z,25.71
2022-10-25T03:56:24.818Z,25.71
2022-10-25T03:58:54.681Z,25.80
2022-10-25T04:01:24.134Z,25.99
2022-10-25T04:03:53.681Z,26.05
2022-10-25T04:06:23.396Z,26.08
2022-10-25T04:08:52.480Z,26.05
2022-10-25T04:11:22.073Z,26.21
2022-10-25T04:13:51.162Z,26.03
2022-10-25T04:16:21.032Z,26.24
2022-10-25T04:18:54.840Z,26.41
2022-10-25T04:21:25.179Z,26.55
2022-10-25T04:23:54.624Z,26.48
2022-10-25T04:26:24.021Z,26.60
2022-10-25T04:28:57.930Z,26.79
2022-10-25T04:31:27.308Z,26.74
2022-10-25T04:33:57.567Z,26.91
2022-10-25T04:36:29.670Z,26.82
2022-10-25T04:38:58.928Z,26.95
2022-10-25T04:41:28.692Z,26.99
2022-10-25T04:43:58.688Z,27.12
2022-10-25T04:46:28.170Z,27.20
2022-10-25T04:48:57.456Z,27.18
2022-10-25T04:51:26.815Z,27.31
2022-10-25T04:53:57.787Z,27.50
2022-10-25T04:56:27.237Z,27.47
2022-10-25T04:58:56.709Z,27.51
2022-10-25T05:01:26.400Z,27.63
2022-10-25T05:03:55.632Z,27.65
2022-10-25T05:06:28.057Z,27.70
2022-10-25T05:08:57.851Z,27.76
2022-10-25T05:11:27.901Z,27.85
2022-10-25T05:13:57.150Z,27.75
2022-10-25T05:16:27.221Z,27.88
2022-10-25T05:18:57.603Z,28.03
2022-10-25T05:21:29.665Z,28.07
2022-10-25T05:24:02.076Z,28.23
2022-10-25T05:26:31.992Z,28.43
2022-10-25T05:29:01.447Z,28.28
2022-10-25T05:31:32.398Z,28.40
2022-10-25T05:34:02.861Z,28.47
2022-10-25T05:36:34.400Z,28.21
2022-10-25T05:39:41.605Z,28.63
2022-10-25T05:42:11.650Z,28.44
2022-10-25T05:44:50.850Z,28.52
2022-10-25T05:47:21.048Z,28.69
2022-10-25T05:49:51.850Z,28.74
2022-10-25T05:52:22.294Z,28.79
2022-10-25T05:54:53.094Z,28.92
2022-10-25T05:57:24.875Z,28.93
2022-10-25T05:59:57.244Z,28.92
2022-10-25T06:02:31.612Z,28.95
2022-10-25T06:05:04.218Z,29.04
2022-10-25T06:07:38.912Z,28.95
2022-10-25T06:10:10.937Z,28.99
2022-10-25T06:12:41.970Z,29.07
2022-10-25T06:15:11.798Z,29.19
2022-10-25T06:17:42.442Z,29.31
2022-10-25T06:20:12.651Z,29.34
2022-10-25T06:22:43.467Z,29.43
2022-10-25T06:25:14.708Z,29.45
2022-10-25T06:27:45.400Z,29.41
2022-10-25T06:30:16.413Z,29.42
2022-10-25T06:32:47.103Z,29.54
2022-10-25T06:35:18.047Z,29.48
2022-10-25T06:37:47.857Z,29.59
2022-10-25T06:40:19.050Z,29.70
2022-10-25T06:42:48.749Z,29.69
2022-10-25T06:45:19.103Z,29.82
2022-10-25T06:47:49.586Z,29.89
2022-10-25T06:50:18.989Z,29.92
2022-10-25T06:52:51.183Z,29.89
2022-10-25T06:55:21.107Z,29.99
2022-10-25T06:57:52.552Z,30.11
2022-10-25T07:00:21.970Z,29.99
2022-10-25T07:03:01.190Z,30.21
2022-10-25T07:05:30.499Z,30.16
2022-10-25T07:07:59.766Z,30.25
2022-10-25T07:10:29.240Z,30.27
2022-10-25T07:12:58.621Z,30.25
2022-10-25T07:15:36.375Z,30.38
2022-10-25T07:18:08.347Z,30.27
2022-10-25T07:20:37.459Z,30.47
2022-10-25T07:23:08.716Z,30.42
2022-10-25T07:25:38.348Z,30.44
2022-10-25T07:28:07.434Z,30.56
2022-10-25T07:30:36.903Z,30.56
2022-10-25T07:33:06.058Z,30.67
2022-10-25T07:35:46.695Z,30.64
2022-10-25T07:38:27.939Z,30.81
2022-10-25T07:40:59.093Z,30.91
2022-10-25T07:43:29.711Z,30.96
2022-10-25T07:45:59.485Z,30.93
2022-10-25T07:48:29.118Z,30.99
2022-10-25T07:50:58.387Z,30.92
2022-10-25T07:53:28.437Z,31.00
2022-10-25T07:55:57.655Z,31.07
2022-10-25T07:58:26.981Z,31.15
2022-10-25T08:01:02.878Z,31.18
2022-10-25T08:03:32.429Z,31.10
2022-10-25T08:06:02.506Z,31.08
2022-10-25T08:08:32.173Z,31.01
2022-10-25T08:11:05.290Z,31.17
2022-10-25T08:13:35.065Z,31.20
2022-10-25T08:16:04.929Z,31.22
2022-10-25T08:18:35.239Z,31.16
2022-10-25T08:21:05.597Z,31.14
2022-10-25T08:23:34.795Z,31.18
2022-10-25T08:26:04.577Z,31.25
2022-10-25T08:28:34.263Z,31.28
2022-10-25T08:31:05.453Z,31.38
2022-10-25T08:33:35.296Z,31.44
2022-10-25T08:36:04.597Z,31.41
2022-10-25T08:38:34.230Z,31.43
2022-10-25T08:41:25.205Z,31.51
2022-10-25T08:44:13.426Z,31.54
2022-10-25T08:46:54.008Z,31.61
2022-10-25T08:49:33.331Z,31.62
2022-10-25T08:52:04.301Z,31.51
2022-10-25T08:54:44.107Z,31.57
2022-10-25T08:57:27.803Z,31.53
2022-10-25T09:00:02.085Z,31.59
2022-10-25T09:02:55.767Z,31.61
2022-10-25T09:05:42.846Z,31.52
2022-10-25T09:08:36.496Z,31.64
2022-10-25T09:11:36.914Z,31.68
2022-10-25T09:14:21.499Z,31.63
2022-10-25T09:16:59.976Z,31.62
2022-10-25T09:19:51.064Z,31.60
2022-10-25T09:22:31.266Z,31.53
2022-10-25T09:25:28.105Z,31.57
2022-10-25T09:28:09.739Z,31.48
2022-10-25T09:30:44.775Z,31.57
2022-10-25T09:35:58.140Z,31.68
2022-10-25T09:38:51.417Z,31.55
2022-10-25T09:41:41.087Z,31.49
2022-10-25T09:44:45.088Z,31.64
2022-10-25T09:47:49.729Z,31.58
2022-10-25T09:50:29.498Z,31.56
2022-10-25T09:53:16.659Z,31.61
2022-10-25T09:55:59.646Z,31.57
2022-10-25T09:58:32.653Z,31.48
2022-10-25T10:01:14.004Z,31.41
2022-10-25T10:03:45.720Z,31.38
2022-10-25T10:06:28.077Z,31.52
2022-10-25T10:09:07.343Z,31.51
2022-10-25T10:11:37.964Z,31.39
2022-10-25T10:14:27.619Z,31.53
2022-10-25T10:17:01.525Z,31.34
2022-10-25T10:19:31.804Z,31.31
2022-10-25T10:22:16.480Z,31.36
2022-10-25T10:24:49.247Z,31.32
2022-10-25T10:27:24.442Z,31.35
2022-10-25T10:30:08.733Z,31.35
2022-10-25T10:35:29.530Z,31.38
2022-10-25T10:38:23.826Z,31.32
2022-10-25T10:41:17.212Z,31.24
2022-10-25T10:43:49.249Z,31.14
2022-10-25T10:46:25.897Z,31.16
2022-10-25T10:48:57.264Z,31.15
2022-10-25T10:51:46.951Z,31.21
2022-10-25T10:54:28.746Z,31.18
2022-10-25T10:57:05.790Z,31.16
2022-10-25T10:59:57.653Z,31.14
2022-10-25T11:02:42.857Z,31.07
2022-10-25T11:05:39.383Z,31.12
2022-10-25T11:08:09.452Z,30.87
2022-10-25T11:10:39.648Z,30.82
2022-10-25T11:13:20.374Z,30.81
2022-10-25T11:16:15.111Z,30.89
2022-10-25T11:19:11.015Z,30.80
2022-10-25T11:21:45.953Z,30.73
2022-10-25T11:24:41.403Z,30.66
2022-10-25T11:27:45.239Z,30.56
2022-10-25T11:30:19.419Z,30.48
2022-10-25T11:33:10.039Z,30.51
2022-10-25T11:35:57.602Z,30.33
2022-10-25T11:38:42.347Z,30.42
2022-10-25T11:41:50.044Z,30.38
2022-10-25T11:44:44.337Z,30.27
2022-10-25T11:47:18.591Z,30.14
2022-10-25T11:50:13.350Z,30.08
2022-10-25T11:53:00.016Z,29.91
2022-10-25T11:55:34.938Z,29.63
2022-10-25T11:58:31.362Z,29.59
2022-10-25T12:01:21.626Z,29.49
2022-10-25T12:04:08.769Z,29.20
2022-10-25T12:06:49.831Z,29.20
2022-10-25T12:10:09.827Z,29.18
2022-10-25T12:12:51.103Z,29.03
2022-10-25T12:15:37.928Z,28.93
2022-10-25T12:18:11.487Z,28.80
2022-10-25T12:20:41.249Z,28.71
2022-10-25T12:23:17.262Z,28.67
2022-10-25T12:25:54.681Z,28.68
2022-10-25T12:28:42.286Z,28.49
2022-10-25T12:31:28.187Z,28.57
2022-10-25T12:34:21.525Z,28.54
2022-10-25T12:36:56.785Z,28.49
2022-10-25T12:39:56.244Z,28.43
2022-10-25T12:42:31.030Z,28.40
2022-10-25T12:45:27.730Z,28.36
2022-10-25T12:48:26.576Z,28.31
2022-10-25T12:51:05.185Z,28.23
2022-10-25T12:54:03.304Z,28.26
2022-10-25T12:56:57.970Z,28.19
2022-10-25T12:59:39.266Z,27.99
2022-10-25T13:02:31.106Z,28.08
2022-10-25T13:05:44.227Z,28.05
2022-10-25T13:08:18.173Z,27.88
2022-10-25T13:11:00.477Z,27.84
2022-10-25T13:13:40.522Z,27.80
2022-10-25T13:16:12.050Z,27.73
2022-10-25T13:18:49.068Z,27.73
2022-10-25T13:21:38.870Z,27.57
2022-10-25T13:24:11.304Z,27.55
2022-10-25T13:27:19.954Z,27.63
2022-10-25T13:30:29.365Z,27.53
2022-10-25T13:33:25.644Z,27.47
2022-10-25T13:35:55.364Z,27.27
2022-10-25T13:38:39.621Z,27.33
2022-10-25T13:41:16.265Z,27.21
2022-10-25T13:44:00.595Z,27.24
2022-10-25T13:46:36.759Z,27.20
2022-10-25T13:49:28.689Z,27.14
2022-10-25T13:52:01.223Z,27.05
2022-10-25T13:54:40.971Z,27.16
2022-10-25T13:57:51.396Z,27.07
2022-10-25T14:00:23.301Z,26.97
2022-10-25T14:03:10.910Z,27.04
2022-10-25T14:05:58.219Z,27.02
2022-10-25T14:08:48.864Z,26.97
2022-10-25T14:11:24.646Z,26.83
2022-10-25T14:14:13.033Z,26.90
2022-10-25T14:16:57.097Z,26.82
2022-10-25T14:19:37.604Z,26.71
2022-10-25T14:22:29.062Z,26.85
2022-10-25T14:25:05.694Z,26.75
2022-10-25T14:27:37.750Z,26.77
2022-10-25T14:30:22.593Z,26.81
2022-10-25T14:32:57.597Z,26.78
2022-10-25T14:35:34.275Z,26.70
2022-10-25T14:38:05.188Z,26.61
2022-10-25T14:40:34.129Z,26.53
2022-10-25T14:43:35.291Z,26.66
2022-10-25T14:46:15.371Z,26.46
2022-10-25T14:48:49.697Z,26.44
2022-10-25T14:51:23.863Z,26.50
2022-10-25T14:53:57.566Z,26.45
2022-10-25T14:57:04.214Z,26.46
2022-10-25T14:59:44.789Z,26.40
2022-10-25T15:02:26.125Z,26.36
2022-10-25T15:04:58.634Z,26.19
2022-10-25T15:07:35.231Z,26.38
2022-10-25T15:12:39.936Z,26.08
2022-10-25T15:15:48.913Z,26.23
2022-10-25T15:18:35.267Z,26.17
2022-10-25T15:21:07.534Z,26.00
2022-10-25T15:23:37.167Z,25.98
2022-10-25T15:26:29.357Z,26.10
2022-10-25T15:29:02.214Z,26.05
2022-10-25T15:31:33.861Z,26.05
2022-10-25T15:34:05.890Z,26.06
2022-10-25T15:36:35.722Z,26.03
2022-10-25T15:39:19.407Z,26.03
2022-10-25T15:41:49.381Z,25.95
2022-10-25T15:44:18.527Z,25.82
2022-10-25T15:46:50.195Z,25.94
2022-10-25T15:49:20.737Z,25.91
2022-10-25T15:51:50.553Z,25.91
2022-10-25T15:54:24.884Z,25.99
2022-10-25T15:56:55.474Z,25.84
2022-10-25T15:59:24.968Z,25.82
2022-10-25T16:01:56.889Z,25.83
2022-10-25T16:04:26.295Z,25.72
2022-10-25T16:06:55.239Z,25.78
2022-10-25T16:09:25.362Z,25.77
2022-10-25T16:11:56.335Z,25.82
2022-10-25T16:14:28.583Z,25.80
2022-10-25T16:17:01.039Z,25.71
2022-10-25T16:19:32.644Z,25.67
2022-10-25T16:22:01.831Z,25.63
2022-10-25T16:24:31.617Z,25.60
2022-10-25T16:27:02.362Z,25.56
2022-10-25T16:29:31.957Z,25.54
2022-10-25T16:32:01.318Z,25.51
2022-10-25T16:34:30.432Z,25.45
2022-10-25T16:36:59.686Z,25.46
2022-10-25T16:39:28.656Z,25.40
2022-10-25T16:41:59.569Z,25.39
2022-10-25T16:44:28.943Z,25.35
2022-10-25T16:46:58.775Z,25.35
2022-10-25T16:49:28.066Z,25.34
2022-10-25T16:51:57.131Z,25.35
2022-10-25T16:54:26.344Z,25.30
2022-10-25T16:56:55.372Z,25.29
2022-10-25T16:59:25.028Z,25.25
2022-10-25T17:01:57.354Z,25.33
2022-10-25T17:04:26.216Z,25.45
2022-10-25T17:06:55.437Z,25.24
2022-10-25T17:09:24.752Z,25.20
2022-10-25T17:11:54.101Z,25.19
2022-10-25T17:14:23.244Z,25.17
2022-10-25T17:16:52.284Z,25.17
2022-10-25T17:19:21.306Z,25.13
2022-10-25T17:21:50.715Z,25.11
2022-10-25T17:24:20.668Z,25.07
2022-10-25T17:26:50.347Z,25.06
2022-10-25T17:29:19.712Z,25.05
2022-10-25T17:31:48.858Z,25.02
2022-10-25T17:34:18.846Z,24.99
2022-10-25T17:36:48.089Z,24.94
2022-10-25T17:39:18.238Z,24.92
2022-10-25T17:41:47.332Z,24.89
2022-10-25T17:44:16.303Z,24.89
2022-10-25T17:46:45.384Z,24.84
2022-10-25T17:49:14.474Z,24.80
2022-10-25T17:51:44.952Z,24.82
2022-10-25T17:54:14.258Z,24.84
2022-10-25T17:56:43.258Z,24.80
2022-10-25T17:59:12.419Z,24.80
2022-10-25T18:01:41.670Z,24.70
2022-10-25T18:04:10.893Z,24.75
2022-10-25T18:06:40.250Z,24.71
2022-10-25T18:09:10.574Z,24.74
2022-10-25T18:11:40.121Z,24.66
2022-10-25T18:14:09.484Z,24.65
2022-10-25T18:16:39.021Z,24.64
2022-10-25T18:19:08.217Z,24.64
2022-10-25T18:21:37.262Z,24.56
2022-10-25T18:24:07.151Z,24.47
2022-10-25T18:26:36.756Z,24.52
2022-10-25T18:29:05.926Z,24.50
2022-10-25T18:31:35.188Z,24.49
2022-10-25T18:34:07.237Z,24.49
2022-10-25T18:36:37.282Z,24.44
2022-10-25T18:39:06.629Z,24.46
2022-10-25T18:41:36.529Z,24.41
2022-10-25T18:44:05.646Z,24.40
2022-10-25T18:46:34.990Z,24.38
2022-10-25T18:49:04.327Z,24.40
2022-10-25T18:51:34.236Z,24.42
2022-10-25T18:54:04.223Z,24.42
2022-10-25T18:56:33.584Z,24.35
2022-10-25T18:59:02.737Z,24.38
2022-10-25T19:01:34.846Z,24.35
2022-10-25T19:04:05.309Z,24.34
2022-10-25T19:06:35.963Z,24.28
2022-10-25T19:09:05.695Z,24.30
2022-10-25T19:11:36.333Z,24.27
2022-10-25T19:14:06.455Z,24.23
2022-10-25T19:16:36.956Z,24.19
2022-10-25T19:19:08.223Z,24.23
2022-10-25T19:21:37.800Z,24.14
2022-10-25T19:24:07.461Z,24.10
2022-10-25T19:26:36.746Z,24.07
2022-10-25T19:29:05.729Z,24.10
2022-10-25T19:31:35.126Z,24.11
2022-10-25T19:34:07.166Z,24.09
2022-10-25T19:36:36.476Z,24.06
2022-10-25T19:39:06.229Z,24.04
2022-10-25T19:41:35.488Z,23.95
2022-10-25T19:44:05.754Z,23.97
2022-10-25T19:46:34.837Z,23.97
2022-10-25T19:49:04.184Z,23.90
2022-10-25T19:51:33.438Z,23.82
2022-10-25T19:54:02.399Z,23.85
2022-10-25T19:56:32.412Z,23.84
2022-10-25T19:59:01.697Z,23.91
2022-10-25T20:01:31.601Z,23.93
2022-10-25T20:04:01.913Z,23.93
2022-10-25T20:06:36.101Z,23.98
2022-10-25T20:09:05.434Z,23.84
2022-10-25T20:11:35.090Z,23.79
2022-10-25T20:14:05.584Z,23.85
2022-10-25T20:16:34.942Z,23.78
2022-10-25T20:19:05.627Z,23.76
2022-10-25T20:21:37.738Z,23.68
2022-10-25T20:24:10.274Z,23.74
2022-10-25T20:26:42.427Z,23.75
2022-10-25T20:29:21.405Z,23.79
2022-10-25T20:31:52.301Z,23.66
2022-10-25T20:34:21.593Z,23.63
2022-10-25T20:36:50.630Z,23.66
2022-10-25T20:39:20.073Z,23.68
2022-10-25T20:41:49.378Z,23.67
2022-10-25T20:44:20.341Z,23.70
2022-10-25T20:46:51.297Z,23.62
2022-10-25T20:49:20.671Z,23.54
2022-10-25T20:51:49.608Z,23.55
2022-10-25T20:54:18.579Z,23.56
2022-10-25T20:56:47.644Z,23.48
2022-10-25T20:59:16.852Z,23.49
2022-10-25T21:01:46.694Z,23.46
2022-10-25T21:04:25.752Z,23.42
2022-10-25T21:07:07.414Z,23.42
2022-10-25T21:09:36.545Z,23.45
2022-10-25T21:12:05.677Z,23.38
2022-10-25T21:14:34.613Z,23.25
2022-10-25T21:17:03.938Z,23.25
2022-10-25T21:19:32.796Z,23.33
2022-10-25T21:22:02.118Z,23.38
2022-10-25T21:24:31.084Z,23.40
2022-10-25T21:27:00.079Z,23.39
2022-10-25T21:29:29.101Z,23.31
2022-10-25T21:31:58.052Z,23.25
2022-10-25T21:34:27.337Z,23.23
2022-10-25T21:36:56.267Z,23.23
2022-10-25T21:39:25.525Z,23.20
2022-10-25T21:41:54.559Z,23.20
2022-10-25T21:44:23.913Z,23.20
2022-10-25T21:46:53.174Z,23.15
2022-10-25T21:49:22.411Z,23.10
2022-10-25T21:51:51.448Z,23.08
2022-10-25T21:56:53.713Z,23.08
2022-10-25T21:59:23.985Z,23.13
2022-10-25T22:01:53.385Z,23.05
2022-10-25T22:04:25.097Z,23.05
2022-10-25T22:06:54.931Z,23.01
2022-10-25T22:09:24.074Z,23.04
2022-10-25T22:11:53.871Z,23.10
2022-10-25T22:14:22.822Z,23.08
2022-10-25T22:16:52.026Z,23.09
2022-10-25T22:21:53.579Z,22.93
2022-10-25T22:24:22.579Z,22.94
2022-10-25T22:26:52.354Z,22.98
2022-10-25T22:29:21.522Z,22.97
2022-10-25T22:31:50.976Z,22.96
2022-10-25T22:34:19.960Z,23.01
2022-10-25T22:36:49.154Z,23.03
2022-10-25T22:39:18.562Z,22.96
2022-10-25T22:41:54.069Z,22.91
2022-10-25T22:46:57.320Z,22.83
2022-10-25T22:49:26.364Z,22.84
2022-10-25T22:51:55.456Z,22.89
2022-10-25T22:54:24.668Z,22.88
2022-10-25T22:56:53.996Z,22.87
2022-10-25T22:59:23.311Z,22.88
2022-10-25T23:01:52.285Z,22.89
2022-10-25T23:04:21.555Z,22.90
2022-10-25T23:06:50.679Z,22.90
2022-10-25T23:09:19.802Z,22.95
2022-10-25T23:11:48.969Z,22.97
2022-10-25T23:14:17.989Z,22.92
2022-10-25T23:16:47.714Z,22.98
2022-10-25T23:19:17.014Z,22.96
2022-10-25T23:21:46.249Z,22.93
2022-10-25T23:24:15.220Z,22.93
2022-10-25T23:26:44.289Z,22.88
2022-10-25T23:29:14.550Z,22.88
2022-10-25T23:31:43.690Z,22.83
2022-10-25T23:34:12.848Z,22.83
2022-10-25T23:36:42.063Z,22.81
2022-10-25T23:39:11.231Z,22.75
2022-10-25T23:41:40.437Z,22.68
2022-10-25T23:44:09.542Z,22.72
2022-10-25T23:46:38.784Z,22.73
2022-10-25T23:49:07.752Z,22.78
2022-10-25T23:51:37.098Z,22.77
2022-10-25T23:54:06.248Z,22.74
2022-10-25T23:56:35.220Z,22.73
2022-10-25T23:59:04.743Z,22.73
